Time;durP1;ratioP1;P1;durP2;ratioP2;P2;SDS_P1;SDS_P2;PMS_P1;PMS_P2;Temp;Humidity;BMP_temperature;BMP_pressure;BME280_temperature;BME280_humidity;BME280_pressure;Samples;Min_cycle;Max_cycle;Signal;HPM_P1;HPM_P2
2022/02/26 00:01:09;;;;;;;;;37.00;30.00;;;;;10.01;97.21;102523.78;6317809;22;46844;-86
2022/02/26 00:03:35;;;;;;;;;35.67;31.33;;;;;10.06;96.55;102537.28;6318564;22;45351;-86
2022/02/26 00:06:01;;;;;;;;;40.00;34.00;;;;;10.09;97.63;102546.28;6319164;22;44777;-86
2022/02/26 00:08:31;;;;;;;;;40.00;36.00;;;;;10.10;96.56;102529.53;6317713;22;45130;-86
2022/02/26 00:10:56;;;;;;;;;40.00;37.33;;;;;9.94;97.26;102537.66;6318546;22;45404;-86
2022/02/26 00:13:22;;;;;;;;;46.33;39.00;;;;;9.88;97.84;102527.63;6313891;22;45329;-86
2022/02/26 00:15:47;;;;;;;;;39.67;36.67;;;;;9.92;97.77;102552.63;6310749;22;45305;-86
2022/02/26 00:18:13;;;;;;;;;35.00;32.00;;;;;9.91;97.42;102553.44;6311321;22;45276;-86
2022/02/26 00:20:40;;;;;;;;;32.00;32.00;;;;;9.99;97.99;102554.69;6314491;22;45367;-86
2022/02/26 00:23:05;;;;;;;;;42.33;35.33;;;;;9.78;97.61;102547.56;6312060;22;45337;-86
2022/02/26 00:25:38;;;;;;;;;41.00;35.33;;;;;9.69;97.91;102532.94;6312727;22;45709;-86
2022/02/26 00:28:04;;;;;;;;;29.00;26.33;;;;;9.52;98.38;102506.50;6314293;22;45345;-86
2022/02/26 00:30:29;;;;;;;;;34.67;31.00;;;;;9.72;97.65;102551.69;6314030;22;45730;-86
2022/02/26 00:32:56;;;;;;;;;38.00;31.33;;;;;9.91;98.19;102551.69;6313939;22;45289;-86
2022/02/26 00:35:21;;;;;;;;;37.67;33.67;;;;;9.46;98.54;102510.63;6313947;22;45363;-86
2022/02/26 00:37:47;;;;;;;;;36.00;31.67;;;;;9.45;99.11;102514.09;6313288;22;45184;-86
2022/02/26 00:40:12;;;;;;;;;29.67;28.67;;;;;9.74;99.19;102566.84;6312886;22;46844;-87
2022/02/26 00:42:38;;;;;;;;;40.67;36.33;;;;;9.74;99.39;102558.88;6312995;22;45368;-87
2022/02/26 00:45:06;;;;;;;;;26.33;25.33;;;;;9.86;99.45;102545.25;6314711;22;45338;-87
2022/02/26 00:47:33;;;;;;;;;29.33;27.33;;;;;9.60;98.67;102518.38;6317675;22;45453;-87
2022/02/26 00:49:58;;;;;;;;;32.33;29.00;;;;;9.76;99.19;102549.25;6314505;22;46679;-87
2022/02/26 00:52:28;;;;;;;;;38.00;29.33;;;;;9.67;99.26;102519.56;6314912;22;45741;-86
2022/02/26 00:54:55;;;;;;;;;30.33;30.33;;;;;9.65;99.63;102565.50;6312767;22;45664;-86
2022/02/26 00:57:20;;;;;;;;;32.67;28.67;;;;;9.59;99.93;102551.13;6315530;22;45292;-87
2022/02/26 00:59:46;;;;;;;;;27.00;26.33;;;;;9.69;99.78;102556.84;6315730;22;45343;-86
2022/02/26 01:02:12;;;;;;;;;33.67;31.67;;;;;9.36;99.47;102527.88;6311600;22;45177;-87
2022/02/26 01:04:38;;;;;;;;;32.00;30.33;;;;;9.62;100.00;102553.00;6312427;22;45359;-86
2022/02/26 01:07:05;;;;;;;;;39.00;36.33;;;;;9.34;99.75;102518.91;6314827;22;44656;-86
2022/02/26 01:09:31;;;;;;;;;37.33;33.33;;;;;9.57;100.00;102576.69;6314575;22;45731;-87
2022/02/26 01:11:57;;;;;;;;;34.33;30.67;;;;;9.47;100.00;102554.91;6317292;22;45281;-87
2022/02/26 01:14:26;;;;;;;;;32.67;29.33;;;;;9.57;100.00;102567.78;6314731;22;45346;-87
2022/02/26 01:16:51;;;;;;;;;28.67;27.67;;;;;9.49;100.00;102558.56;6316076;22;45844;-87
2022/02/26 01:19:18;;;;;;;;;28.33;28.00;;;;;9.67;99.92;102554.13;6315497;22;47703;-87
2022/02/26 01:21:44;;;;;;;;;35.00;32.00;;;;;9.31;99.80;102538.28;6312979;22;45394;-87
2022/02/26 01:24:11;;;;;;;;;33.00;30.00;;;;;9.48;98.68;102562.97;6313284;22;45360;-86
2022/02/26 01:26:37;;;;;;;;;28.33;26.33;;;;;9.31;99.14;102559.53;6307055;22;45271;-87
2022/02/26 01:29:03;;;;;;;;;26.33;23.00;;;;;9.27;99.27;102554.91;6307997;22;46871;-87
2022/02/26 01:31:30;;;;;;;;;33.67;28.67;;;;;9.34;100.00;102559.66;6307751;22;45723;-86
2022/02/26 01:33:56;;;;;;;;;32.67;30.00;;;;;9.29;100.00;102565.56;6281516;22;45626;-87
2022/02/26 01:36:22;;;;;;;;;35.00;30.33;;;;;9.26;100.00;102582.25;6283350;22;45293;-87
2022/02/26 01:38:48;;;;;;;;;33.33;28.00;;;;;9.22;100.00;102564.38;6280400;22;46987;-86
2022/02/26 01:41:14;;;;;;;;;36.33;29.67;;;;;9.00;100.00;102531.44;6281693;22;45488;-86
2022/02/26 01:43:41;;;;;;;;;31.33;28.67;;;;;9.40;100.00;102574.97;6288964;22;45368;-86
2022/02/26 01:46:08;;;;;;;;;28.33;25.00;;;;;9.26;100.00;102570.75;6260030;22;45426;-86
2022/02/26 01:48:35;;;;;;;;;32.00;27.67;;;;;9.21;100.00;102573.19;6286244;22;46549;-86
2022/02/26 01:51:02;;;;;;;;;32.00;30.00;;;;;9.26;100.00;102587.56;6286344;22;45745;-86
2022/02/26 01:53:28;;;;;;;;;27.67;24.00;;;;;9.24;99.14;102588.34;6287824;22;45274;-87
2022/02/26 01:55:57;;;;;;;;;27.00;25.33;;;;;9.35;99.55;102582.72;6288550;22;45760;-87
2022/02/26 01:58:25;;;;;;;;;25.00;22.67;;;;;9.05;99.05;102554.66;6282869;22;47059;-87
2022/02/26 02:00:50;;;;;;;;;24.00;23.00;;;;;9.11;98.89;102568.22;6285503;22;44689;-87
2022/02/26 02:03:16;;;;;;;;;23.33;23.33;;;;;9.00;98.91;102547.38;6282667;22;45240;-86
2022/02/26 02:05:43;;;;;;;;;27.00;26.00;;;;;9.18;99.13;102591.59;6283606;22;45466;-86
2022/02/26 02:08:11;;;;;;;;;24.00;20.00;;;;;9.29;99.63;102589.47;6281854;22;47966;-86
2022/02/26 02:10:39;;;;;;;;;22.00;19.67;;;;;9.23;99.74;102576.81;6288084;22;45187;-86
2022/02/26 02:13:05;;;;;;;;;25.67;22.67;;;;;9.04;99.87;102568.78;6311459;22;45207;-86
2022/02/26 02:15:40;;;;;;;;;19.00;17.33;;;;;9.27;100.00;102568.16;6288671;22;44781;-86
2022/02/26 02:18:08;;;;;;;;;26.33;22.67;;;;;9.05;99.21;102570.56;6284715;22;46781;-87
2022/02/26 02:20:34;;;;;;;;;21.00;20.67;;;;;8.92;99.61;102569.97;6286911;22;45336;-87
2022/02/26 02:23:00;;;;;;;;;19.67;18.67;;;;;8.81;99.75;102565.88;6284936;22;45281;-86
2022/02/26 02:25:32;;;;;;;;;19.00;17.67;;;;;9.03;100.00;102570.53;6290990;22;45265;-87
2022/02/26 02:27:58;;;;;;;;;18.67;18.67;;;;;8.87;99.93;102565.28;6314027;22;46877;-87
2022/02/26 02:30:25;;;;;;;;;25.67;23.67;;;;;8.82;99.88;102557.06;6314705;22;45361;-87
2022/02/26 02:32:52;;;;;;;;;23.67;22.00;;;;;8.51;99.56;102515.75;6313909;22;45407;-87
2022/02/26 02:35:27;;;;;;;;;29.00;22.33;;;;;9.02;100.00;102571.34;6316859;22;45147;-87
2022/02/26 02:37:54;;;;;;;;;31.00;29.33;;;;;8.66;100.00;102562.44;6314388;22;46577;-87
2022/02/26 02:40:21;;;;;;;;;22.67;22.00;;;;;8.70;100.00;102556.44;6316685;22;45280;-87
2022/02/26 02:42:47;;;;;;;;;28.67;23.33;;;;;8.84;100.00;102565.13;6313667;22;45508;-87
2022/02/26 02:45:12;;;;;;;;;19.00;18.67;;;;;8.55;100.00;102523.03;6313841;22;44827;-88
2022/02/26 02:47:38;;;;;;;;;26.00;22.33;;;;;8.57;100.00;102524.00;6313834;22;47153;-88
2022/02/26 02:50:04;;;;;;;;;27.00;23.67;;;;;8.72;100.00;102538.88;6312851;22;45466;-87
2022/02/26 02:52:32;;;;;;;;;25.00;23.33;;;;;8.91;100.00;102561.97;6314218;22;45396;-88
2022/02/26 02:54:57;;;;;;;;;25.67;23.33;;;;;8.65;100.00;102542.06;6317898;22;45335;-88
2022/02/26 02:57:22;;;;;;;;;29.00;20.67;;;;;8.64;100.00;102545.53;6315299;22;46841;-88
2022/02/26 02:59:48;;;;;;;;;21.67;19.00;;;;;8.64;100.00;102545.53;6321572;22;45421;-88
2022/02/26 03:02:14;;;;;;;;;18.00;18.00;;;;;8.65;100.00;102548.28;6322207;22;45210;-87
2022/02/26 03:04:39;;;;;;;;;18.00;18.00;;;;;8.54;100.00;102525.59;6322716;22;45515;-86
2022/02/26 03:07:05;;;;;;;;;18.67;17.67;;;;;8.70;100.00;102556.44;6322119;22;46641;-87
2022/02/26 03:09:30;;;;;;;;;23.00;22.00;;;;;8.48;100.00;102531.47;6320044;22;45161;-87
2022/02/26 03:11:56;;;;;;;;;19.67;19.67;;;;;8.41;100.00;102503.75;6317823;22;45118;-87
2022/02/26 03:14:21;;;;;;;;;29.67;21.33;;;;;8.55;99.34;102536.28;6317312;22;45455;-87
2022/02/26 03:16:47;;;;;;;;;20.00;18.00;;;;;8.35;100.00;102505.16;6315277;22;48102;-87
2022/02/26 03:19:13;;;;;;;;;20.33;20.33;;;;;8.28;100.00;102513.59;6317155;22;45403;-87
2022/02/26 03:21:39;;;;;;;;;27.00;24.67;;;;;8.46;100.00;102546.41;6313854;22;45327;-87
2022/02/26 03:24:10;;;;;;;;;24.00;22.00;;;;;8.65;100.00;102560.63;6315300;22;45250;-87
2022/02/26 03:26:36;;;;;;;;;23.33;19.00;;;;;8.49;100.00;102545.66;6293278;22;46722;-87
2022/02/26 03:29:03;;;;;;;;;25.33;17.67;;;;;8.47;100.00;102542.03;6282757;22;45392;-87
2022/02/26 03:31:29;;;;;;;;;23.67;22.67;;;;;8.50;100.00;102556.34;6283613;22;45389;-87
2022/02/26 03:33:55;;;;;;;;;22.00;19.33;;;;;8.33;99.38;102539.53;6258961;22;45235;-86
2022/02/26 03:39:42;;;;;;;;;19.67;19.00;;;;;8.42;100.00;102552.38;6285934;22;45408;-87
2022/02/26 03:42:08;;;;;;;;;24.33;22.33;;;;;8.44;100.00;102548.06;6257824;22;45272;-87
2022/02/26 03:44:34;;;;;;;;;24.00;23.00;;;;;8.33;100.00;102543.94;6257775;22;45310;-88
2022/02/26 03:47:03;;;;;;;;;27.67;22.33;;;;;8.37;100.00;102545.91;6286142;22;45330;-87
2022/02/26 03:49:30;;;;;;;;;32.00;23.00;;;;;8.44;100.00;102550.72;6286515;22;45292;-87
2022/02/26 03:51:56;;;;;;;;;22.00;17.33;;;;;7.95;100.00;102498.66;6260155;22;45347;-87
2022/02/26 03:54:22;;;;;;;;;25.00;22.00;;;;;8.24;100.00;102543.44;6260163;22;45563;-87
2022/02/26 03:56:48;;;;;;;;;21.00;19.33;;;;;8.21;100.00;102553.03;6261415;22;46672;-87
2022/02/26 03:59:13;;;;;;;;;29.00;22.67;;;;;7.90;100.00;102488.69;6287251;22;45441;-87
2022/02/26 04:01:39;;;;;;;;;25.67;21.33;;;;;7.94;98.09;102501.25;6260650;22;45420;-87
2022/02/26 04:04:05;;;;;;;;;25.67;23.67;;;;;8.10;99.26;102540.97;6261676;22;45699;-87
2022/02/26 04:06:31;;;;;;;;;26.00;25.33;;;;;8.01;100.00;102521.94;6261573;22;46735;-86
2022/02/26 04:08:57;;;;;;;;;29.00;27.00;;;;;8.17;100.00;102569.63;6287612;22;45374;-86
2022/02/26 04:11:23;;;;;;;;;23.33;21.33;;;;;8.18;100.00;102558.19;6286566;22;45218;-86
2022/02/26 04:13:48;;;;;;;;;25.33;23.33;;;;;8.23;100.00;102560.19;6281775;22;45461;-86
2022/02/26 04:16:14;;;;;;;;;29.33;24.33;;;;;8.24;100.00;102570.88;6257526;22;46758;-86
2022/02/26 04:18:39;;;;;;;;;28.67;27.00;;;;;8.07;100.00;102559.34;6258675;22;45789;-86
2022/02/26 04:21:05;;;;;;;;;28.00;23.67;;;;;8.10;100.00;102558.59;6287835;22;45492;-86
2022/02/26 04:23:30;;;;;;;;;28.67;26.33;;;;;8.01;100.00;102536.09;6260566;22;45513;-86
2022/02/26 04:25:56;;;;;;;;;38.33;29.67;;;;;8.15;100.00;102552.72;6276235;22;46884;-86
2022/02/26 04:28:22;;;;;;;;;28.67;25.00;;;;;8.27;100.00;102581.63;6316939;22;45696;-87
2022/02/26 04:30:49;;;;;;;;;25.67;25.67;;;;;8.19;100.00;102562.66;6321223;22;44708;-87
2022/02/26 04:33:15;;;;;;;;;26.33;25.33;;;;;8.24;100.00;102568.22;6293315;22;45377;-87
2022/02/26 04:35:41;;;;;;;;;25.00;23.33;;;;;8.18;100.00;102549.31;6319713;22;48303;-86
2022/02/26 04:38:06;;;;;;;;;30.00;28.33;;;;;8.13;100.00;102570.28;6320382;22;45327;-86
2022/02/26 04:40:33;;;;;;;;;29.67;28.33;;;;;8.20;100.00;102567.13;6320365;22;45194;-87
2022/02/26 04:42:59;;;;;;;;;19.33;19.33;;;;;8.11;100.00;102571.94;6318170;22;44764;-86
2022/02/26 04:45:25;;;;;;;;;30.33;28.00;;;;;8.16;100.00;102583.72;6315110;22;46817;-87
2022/02/26 04:47:51;;;;;;;;;33.33;30.00;;;;;8.12;100.00;102556.94;6315190;22;45377;-86
2022/02/26 04:50:17;;;;;;;;;28.33;22.67;;;;;8.18;100.00;102578.47;6342424;22;44739;-87
2022/02/26 04:52:44;;;;;;;;;27.33;23.33;;;;;7.97;100.00;102539.41;6318242;22;45396;-86
2022/02/26 04:55:09;;;;;;;;;26.67;25.00;;;;;7.99;100.00;102558.03;6315987;22;46449;-86
2022/02/26 04:57:35;;;;;;;;;30.67;26.67;;;;;7.79;100.00;102518.13;6316290;22;45549;-86
2022/02/26 05:00:04;;;;;;;;;25.33;24.00;;;;;8.14;100.00;102558.88;6317683;22;45293;-86
2022/02/26 05:02:29;;;;;;;;;31.00;25.00;;;;;7.99;100.00;102560.69;6316282;22;45178;-86
2022/02/26 05:04:55;;;;;;;;;25.67;25.67;;;;;7.92;100.00;102553.25;6314253;22;46956;-86
2022/02/26 05:07:21;;;;;;;;;24.67;24.67;;;;;7.84;100.00;102551.91;6315031;22;45297;-86
2022/02/26 05:09:46;;;;;;;;;25.67;23.67;;;;;7.67;100.00;102516.56;6316013;22;44660;-86
2022/02/26 05:15:34;;;;;;;;;27.33;25.67;;;;;7.88;100.00;102561.88;6316662;22;45252;-86
2022/02/26 05:17:59;;;;;;;;;24.67;21.00;;;;;7.87;100.00;102563.56;6314649;22;45697;-86
2022/02/26 05:20:25;;;;;;;;;28.33;25.00;;;;;7.85;100.00;102564.34;6314949;22;45498;-87
2022/02/26 05:22:50;;;;;;;;;25.33;22.00;;;;;7.82;100.00;102558.03;6315222;22;45346;-86
2022/02/26 05:25:16;;;;;;;;;30.00;25.00;;;;;7.95;100.00;102566.66;6312775;22;46625;-86
2022/02/26 05:27:49;;;;;;;;;26.67;25.00;;;;;8.15;100.00;102568.63;6284443;22;45475;-86
2022/02/26 05:30:18;;;;;;;;;30.67;28.00;;;;;7.87;100.00;102562.69;6259498;22;44670;-86
2022/02/26 05:32:44;;;;;;;;;28.00;25.00;;;;;7.67;100.00;102545.69;6285390;22;45480;-86
2022/02/26 05:35:10;;;;;;;;;25.33;22.00;;;;;7.81;100.00;102563.25;6257506;22;47115;-86
2022/02/26 05:37:36;;;;;;;;;22.00;22.00;;;;;7.63;100.00;102563.13;6285697;22;45497;-86
2022/02/26 05:40:04;;;;;;;;;21.00;19.67;;;;;7.86;100.00;102569.72;6285392;22;45258;-86
2022/02/26 05:42:29;;;;;;;;;29.00;24.33;;;;;7.70;100.00;102575.91;6285003;22;45425;-87
2022/02/26 05:44:55;;;;;;;;;23.00;22.00;;;;;7.71;100.00;102577.72;6264187;22;47064;-86
2022/02/26 05:47:22;;;;;;;;;24.67;22.00;;;;;7.86;100.00;102582.03;6262802;22;45240;-87
2022/02/26 05:49:47;;;;;;;;;23.67;23.67;;;;;7.67;100.00;102580.13;6291686;22;45367;-87
2022/02/26 05:52:13;;;;;;;;;22.33;21.33;;;;;7.60;100.00;102563.00;6289973;22;45431;-87
2022/02/26 05:54:39;;;;;;;;;23.33;21.33;;;;;7.52;100.00;102567.84;6288062;22;46665;-87
2022/02/26 05:57:11;;;;;;;;;24.33;21.67;;;;;7.29;100.00;102518.94;6237081;22;45856;-87
2022/02/26 05:59:37;;;;;;;;;22.67;20.67;;;;;7.41;100.00;102564.63;6261551;22;45430;-86
2022/02/26 06:02:03;;;;;;;;;21.00;20.00;;;;;7.51;100.00;102568.66;6260375;22;45405;-86
2022/02/26 06:04:28;;;;;;;;;14.67;13.33;;;;;7.19;100.00;102529.78;6287037;22;46752;-87
2022/02/26 06:06:54;;;;;;;;;19.00;17.50;;;;;7.36;100.00;102552.84;6257908;22;45195;-87
2022/02/26 06:09:19;;;;;;;;;23.00;18.67;;;;;7.37;100.00;102557.31;6257792;22;45718;-87
2022/02/26 06:11:45;;;;;;;;;19.00;19.00;;;;;7.47;100.00;102579.00;6258094;22;45621;-87
2022/02/26 06:14:12;;;;;;;;;20.33;19.67;;;;;7.47;100.00;102544.59;6285838;22;45425;-87
2022/02/26 06:16:37;;;;;;;;;23.00;23.00;;;;;7.41;100.00;102585.78;6286139;22;45285;-87
2022/02/26 06:19:03;;;;;;;;;22.00;19.67;;;;;7.41;100.00;102580.50;6232653;22;45542;-87
2022/02/26 06:21:35;;;;;;;;;22.33;21.67;;;;;7.52;100.00;102565.19;6259142;22;45358;-87
2022/02/26 06:24:00;;;;;;;;;38.67;34.67;;;;;7.12;100.00;102540.88;6285774;22;45377;-87
2022/02/26 06:26:26;;;;;;;;;30.33;30.33;;;;;7.38;100.00;102580.31;6285298;22;45432;-87
2022/02/26 06:28:54;;;;;;;;;31.67;27.00;;;;;7.36;100.00;102589.00;6316962;22;44775;-87
2022/02/26 06:31:20;;;;;;;;;28.67;25.00;;;;;7.33;100.00;102592.38;6320506;22;45130;-87
2022/02/26 06:33:46;;;;;;;;;35.00;29.00;;;;;7.38;100.00;102587.34;6316900;22;45562;-87
2022/02/26 06:36:11;;;;;;;;;25.00;23.67;;;;;7.25;100.00;102566.28;6318749;22;45169;-87
2022/02/26 06:38:37;;;;;;;;;27.67;25.00;;;;;7.06;100.00;102536.13;6319095;22;45083;-87
2022/02/26 06:41:03;;;;;;;;;23.33;23.33;;;;;7.25;100.00;102572.50;6343615;22;45491;-87
2022/02/26 06:43:28;;;;;;;;;23.67;22.00;;;;;7.34;100.00;102580.97;6318578;22;45861;-87
2022/02/26 06:45:54;;;;;;;;;27.67;24.33;;;;;7.37;100.00;102586.44;6315666;22;45326;-87
2022/02/26 06:48:19;;;;;;;;;25.33;25.33;;;;;7.39;100.00;102589.16;6315265;22;45653;-87
2022/02/26 06:50:45;;;;;;;;;20.67;20.67;;;;;7.27;100.00;102562.94;6317197;22;45362;-88
2022/02/26 06:53:10;;;;;;;;;14.33;13.67;;;;;7.40;100.00;102596.28;6315969;22;46970;-88
2022/02/26 06:55:36;;;;;;;;;28.67;20.33;;;;;7.48;100.00;102600.28;6318063;22;45654;-86
2022/02/26 06:58:01;;;;;;;;;23.67;20.33;;;;;7.37;100.00;102570.56;6319101;22;45343;-86
2022/02/26 07:00:29;;;;;;;;;18.33;18.33;;;;;7.36;100.00;102552.84;6320525;22;45120;-86
2022/02/26 07:02:58;;;;;;;;;21.33;21.33;;;;;7.53;100.00;102588.19;6318591;22;45181;-86
2022/02/26 07:05:24;;;;;;;;;21.00;21.00;;;;;7.17;100.00;102547.31;6317376;22;45383;-86
2022/02/26 07:07:50;;;;;;;;;21.33;21.33;;;;;7.53;100.00;102597.88;6319680;22;45894;-86
2022/02/26 07:10:15;;;;;;;;;24.00;20.67;;;;;7.41;100.00;102567.25;6318704;22;45535;-86
2022/02/26 07:12:41;;;;;;;;;26.00;22.00;;;;;7.54;100.00;102589.13;6320958;22;46369;-86
2022/02/26 07:15:07;;;;;;;;;26.33;26.33;;;;;7.53;100.00;102582.00;6321774;22;45329;-86
2022/02/26 07:17:33;;;;;;;;;23.00;22.00;;;;;7.32;100.00;102540.25;6321739;22;44691;-86
2022/02/26 07:19:59;;;;;;;;;21.00;20.33;;;;;7.54;100.00;102584.72;6322317;22;44818;-87
2022/02/26 07:25:46;;;;;;;;;14.00;12.33;;;;;7.45;96.35;102557.72;6323409;22;45356;-87
2022/02/26 07:28:13;;;;;;;;;16.00;13.00;;;;;7.65;96.05;102550.91;6320884;22;45282;-87
2022/02/26 07:30:39;;;;;;;;;14.67;13.00;;;;;7.59;90.46;102547.91;6319596;22;45458;-87
2022/02/26 07:33:07;;;;;;;;;9.67;9.67;;;;;7.85;92.01;102564.34;6320886;22;45020;-87
2022/02/26 07:39:01;;;;;;;;;8.00;6.33;;;;;8.29;88.60;102565.81;6348690;22;45173;-86
2022/02/26 07:41:30;;;;;;;;;8.00;8.00;;;;;7.99;89.20;102552.75;6323033;22;45555;-87
2022/02/26 07:43:56;;;;;;;;;5.67;4.00;;;;;8.02;91.82;102539.66;6323210;22;45362;-86
2022/02/26 07:46:22;;;;;;;;;6.67;6.00;;;;;8.43;92.97;102588.69;6323565;22;45282;-86
2022/02/26 07:48:48;;;;;;;;;11.67;9.33;;;;;8.49;89.01;102593.41;6323074;22;44801;-86
2022/02/26 07:51:14;;;;;;;;;12.33;10.33;;;;;8.50;91.08;102574.00;6353623;22;45321;-86
2022/02/26 07:53:40;;;;;;;;;8.33;6.00;;;;;8.60;88.91;102585.19;6320385;22;46451;-85
2022/02/26 07:56:05;;;;;;;;;10.67;7.33;;;;;8.67;91.06;102572.22;6320328;22;44699;-87
2022/02/26 07:58:32;;;;;;;;;9.00;8.67;;;;;8.86;84.24;102601.50;6320511;22;45688;-86
2022/02/26 08:00:57;;;;;;;;;11.67;9.33;;;;;8.74;90.83;102579.66;6349527;22;45297;-86
2022/02/26 08:03:23;;;;;;;;;6.00;6.00;;;;;8.59;89.48;102547.97;6321311;22;46602;-86
2022/02/26 08:05:52;;;;;;;;;9.00;7.33;;;;;9.01;88.47;102599.63;6321028;22;45373;-86
2022/02/26 08:08:18;;;;;;;;;11.00;6.67;;;;;8.95;90.16;102570.13;6320691;22;45449;-86
2022/02/26 08:10:43;;;;;;;;;6.33;6.33;;;;;9.09;89.99;102596.44;6321650;22;45427;-86
2022/02/26 08:13:09;;;;;;;;;11.67;9.67;;;;;8.96;91.58;102556.00;6320121;22;45533;-86
2022/02/26 08:15:35;;;;;;;;;10.33;10.00;;;;;9.39;91.66;102603.28;6322317;22;45332;-86
2022/02/26 08:18:00;;;;;;;;;10.00;10.00;;;;;9.19;90.58;102556.28;6322037;22;45380;-86
2022/02/26 08:20:26;;;;;;;;;13.33;12.67;;;;;9.23;87.61;102552.94;6321944;22;44968;-86
2022/02/26 08:22:54;;;;;;;;;7.00;7.00;;;;;9.59;89.25;102592.69;6321011;22;46470;-87
2022/02/26 08:25:20;;;;;;;;;11.00;10.00;;;;;9.35;89.85;102561.47;6321724;22;45215;-87
2022/02/26 08:27:45;;;;;;;;;12.00;9.33;;;;;9.68;84.06;102601.09;6314565;22;45253;-87
2022/02/26 08:30:15;;;;;;;;;18.33;10.33;;;;;9.65;87.63;102555.78;6319739;22;45301;-87
2022/02/26 08:32:42;;;;;;;;;13.33;11.00;;;;;9.72;82.65;102596.88;6318617;22;47510;-87
2022/02/26 08:35:09;;;;;;;;;11.00;9.00;;;;;9.52;87.31;102553.41;6320017;22;45301;-86
2022/02/26 08:37:38;;;;;;;;;14.00;13.67;;;;;9.84;86.19;102567.28;6319876;22;44716;-86
2022/02/26 08:40:05;;;;;;;;;11.33;10.00;;;;;9.82;82.81;102565.47;6294578;22;45488;-86
2022/02/26 08:42:34;;;;;;;;;18.00;12.00;;;;;9.79;84.05;102569.72;6321712;22;47690;-87
2022/02/26 08:45:08;;;;;;;;;10.67;10.33;;;;;10.03;83.09;102554.00;6319781;22;44692;-87
2022/02/26 08:47:34;;;;;;;;;9.67;9.33;;;;;9.76;80.02;102543.03;6319756;22;45213;-87
2022/02/26 08:50:03;;;;;;;;;11.00;11.00;;;;;9.82;73.67;102543.31;6320152;22;44795;-86
2022/02/26 08:52:32;;;;;;;;;11.00;11.00;;;;;9.79;80.79;102541.38;6320759;22;46547;-86
2022/02/26 08:55:03;;;;;;;;;11.33;11.33;;;;;9.88;76.36;102556.88;6319285;22;45297;-87
2022/02/26 08:57:29;;;;;;;;;12.33;7.67;;;;;10.07;75.13;102577.22;6318307;22;45424;-87
2022/02/26 08:59:55;;;;;;;;;7.00;7.00;;;;;10.03;74.58;102577.91;6319788;22;45326;-87
2022/02/26 09:02:27;;;;;;;;;9.67;9.67;;;;;10.02;78.04;102544.22;6319530;22;45290;-87
2022/02/26 09:04:53;;;;;;;;;8.33;7.00;;;;;10.20;78.24;102594.66;6322684;22;45366;-87
2022/02/26 09:07:19;;;;;;;;;9.00;6.67;;;;;10.00;76.52;102535.28;6323892;22;45285;-87
2022/02/26 09:09:44;;;;;;;;;9.00;9.00;;;;;10.33;72.90;102585.50;6322617;22;44928;-87
2022/02/26 09:12:10;;;;;;;;;10.67;10.00;;;;;10.26;69.73;102573.66;6322051;22;46712;-86
2022/02/26 09:17:58;;;;;;;;;7.67;6.00;;;;;10.40;73.72;102583.19;6323183;22;45265;-86
2022/02/26 09:20:26;;;;;;;;;10.00;9.67;;;;;10.25;71.44;102547.00;6322055;22;44809;-86
2022/02/26 09:22:54;;;;;;;;;9.00;8.00;;;;;10.46;72.71;102537.31;6322850;22;45178;-87
2022/02/26 09:25:19;;;;;;;;;10.67;9.67;;;;;10.58;72.37;102574.19;6320774;22;45547;-86
2022/02/26 09:27:45;;;;;;;;;10.33;8.67;;;;;10.54;67.50;102564.25;6320711;22;45263;-86
2022/02/26 09:30:12;;;;;;;;;8.67;6.33;;;;;10.50;71.34;102541.94;6323139;22;45693;-87
2022/02/26 09:32:40;;;;;;;;;8.33;7.00;;;;;10.57;67.43;102525.38;6322953;22;46772;-88
2022/02/26 09:35:14;;;;;;;;;5.00;4.33;;;;;10.63;65.65;102563.75;6322025;22;45446;-87
2022/02/26 09:37:42;;;;;;;;;5.33;5.33;;;;;10.62;64.03;102557.50;6324240;22;45571;-88
2022/02/26 09:40:11;;;;;;;;;10.00;8.67;;;;;10.73;65.69;102565.97;6324741;22;44714;-87
2022/02/26 09:42:42;;;;;;;;;5.67;5.67;;;;;10.78;65.58;102536.03;6326419;22;46421;-88
2022/02/26 09:48:32;;;;;;;;;9.00;8.00;;;;;10.96;67.18;102549.19;6323001;22;45487;-88
2022/02/26 09:50:58;;;;;;;;;5.00;4.67;;;;;10.88;64.09;102566.59;6321380;22;44724;-88
2022/02/26 09:53:24;;;;;;;;;8.67;8.67;;;;;10.78;65.78;102529.81;6320854;22;46823;-87
2022/02/26 09:55:55;;;;;;;;;2.00;2.00;;;;;10.93;61.99;102533.13;6321910;22;45276;-87
2022/02/26 09:58:21;;;;;;;;;7.33;5.33;;;;;10.74;66.54;102519.88;6321704;22;45900;-86
2022/02/26 10:00:49;;;;;;;;;8.67;6.00;;;;;11.25;65.92;102557.50;6322570;22;45463;-86
2022/02/26 10:03:38;;;;;;;;;7.00;6.33;;;;;11.04;58.48;102522.88;6321933;22;45249;-86
2022/02/26 10:06:12;;;;;;;;;7.00;7.00;;;;;11.34;63.32;102557.84;6293098;22;45397;-87
2022/02/26 10:08:45;;;;;;;;;11.00;7.00;;;;;11.29;59.26;102540.78;6319295;22;45443;-87
2022/02/26 10:11:38;;;;;;;;;5.00;3.00;;;;;11.52;59.75;102552.34;6321445;22;45397;-86
2022/02/26 10:14:05;;;;;;;;;6.67;5.00;;;;;11.42;59.08;102547.50;6318856;22;47758;-87
2022/02/26 10:16:55;;;;;;;;;6.33;6.33;;;;;11.39;54.88;102516.31;6318728;22;45656;-87
2022/02/26 10:19:33;;;;;;;;;3.00;3.00;;;;;11.47;55.00;102559.22;6317075;22;45457;-86
2022/02/26 10:22:03;;;;;;;;;4.33;3.67;;;;;11.21;56.79;102507.63;6316962;22;45278;-87
2022/02/26 10:24:29;;;;;;;;;4.33;3.67;;;;;11.25;59.09;102525.53;6320338;22;45373;-87
2022/02/26 10:26:59;;;;;;;;;6.33;5.00;;;;;11.42;53.68;102544.84;6311944;22;45329;-87
2022/02/26 10:29:25;;;;;;;;;1.67;1.67;;;;;11.28;52.82;102552.28;6288181;22;45359;-87
2022/02/26 10:31:52;;;;;;;;;6.67;6.67;;;;;11.35;56.97;102517.06;6310780;22;45218;-87
2022/02/26 10:34:37;;;;;;;;;5.00;5.00;;;;;11.61;59.73;102525.13;6286650;22;47879;-86
2022/02/26 10:37:19;;;;;;;;;6.00;6.00;;;;;11.78;61.69;102537.34;6288313;22;45587;-86
2022/02/26 10:39:50;;;;;;;;;5.00;5.00;;;;;11.66;57.97;102528.91;6287029;22;45444;-87
2022/02/26 10:42:33;;;;;;;;;3.00;3.00;;;;;11.90;56.81;102530.72;6284941;22;44770;-87
2022/02/26 10:45:22;;;;;;;;;5.33;5.00;;;;;11.78;51.81;102520.47;6284643;22;47827;-87
2022/02/26 10:48:06;;;;;;;;;6.67;6.00;;;;;11.39;53.99;102492.34;6309196;22;45199;-87
2022/02/26 10:50:34;;;;;;;;;5.33;5.33;;;;;11.70;55.78;102528.16;6286377;22;45354;-86
2022/02/26 10:53:10;;;;;;;;;4.33;4.33;;;;;12.00;57.63;102514.22;6285964;22;45668;-87
2022/02/26 10:55:50;;;;;;;;;6.67;5.33;;;;;12.05;56.83;102517.94;6288260;22;46149;-87
2022/02/26 10:58:18;;;;;;;;;5.00;4.67;;;;;11.93;52.99;102523.72;6285538;22;45412;-87
2022/02/26 11:00:44;;;;;;;;;2.00;2.00;;;;;11.67;53.94;102485.38;6288348;22;45216;-88
2022/02/26 11:03:13;;;;;;;;;4.33;4.33;;;;;11.85;54.69;102497.59;6290130;22;45472;-88
2022/02/26 11:05:42;;;;;;;;;4.33;2.67;;;;;11.98;50.92;102497.25;6313696;22;47740;-88
2022/02/26 11:08:12;;;;;;;;;6.33;3.00;;;;;12.00;56.32;102493.78;6313746;22;45277;-88
2022/02/26 11:10:40;;;;;;;;;4.67;4.67;;;;;12.03;51.00;102497.41;6287440;22;45382;-87
2022/02/26 11:13:06;;;;;;;;;3.00;3.00;;;;;11.86;54.70;102467.44;6289107;22;45325;-87
2022/02/26 11:15:32;;;;;;;;;7.00;4.67;;;;;11.97;54.08;102482.09;6284687;22;45389;-87
2022/02/26 11:18:01;;;;;;;;;4.33;2.67;;;;;12.13;54.86;102476.44;6285711;22;45289;-87
2022/02/26 11:20:29;;;;;;;;;6.00;4.33;;;;;11.95;56.77;102451.78;6285599;22;45180;-87
2022/02/26 11:22:58;;;;;;;;;3.00;3.00;;;;;12.19;59.09;102446.41;6287281;22;45238;-87
2022/02/26 11:25:25;;;;;;;;;5.00;3.00;;;;;12.05;52.11;102443.25;6284638;22;48384;-86
2022/02/26 11:27:58;;;;;;;;;3.00;3.00;;;;;12.52;52.98;102478.69;6336732;22;45341;-86
2022/02/26 11:30:32;;;;;;;;;4.33;4.33;;;;;12.46;55.98;102473.13;6350674;22;45141;-87
2022/02/26 11:33:00;;;;;;;;;3.33;3.33;;;;;12.16;48.71;102471.22;6349488;22;45310;-87
2022/02/26 11:35:26;;;;;;;;;3.00;3.00;;;;;12.02;46.08;102469.84;6319790;22;48114;-87
2022/02/26 11:38:10;;;;;;;;;4.00;3.33;;;;;12.26;50.90;102451.13;6321883;22;45528;-87